createdAt,value
2023-03-22T00:01:34.815Z,7.40
2023-03-22T00:04:02.438Z,8.40
2023-03-22T00:06:29.613Z,7.75
2023-03-22T00:08:56.742Z,7.53
2023-03-22T00:11:27.253Z,7.25
2023-03-22T00:13:55.025Z,6.95
2023-03-22T00:16:22.470Z,7.20
2023-03-22T00:18:50.306Z,7.60
2023-03-22T00:21:17.879Z,7.68
2023-03-22T00:23:45.520Z,8.23
2023-03-22T00:26:13.702Z,9.30
2023-03-22T00:28:41.681Z,9.05
2023-03-22T00:31:10.449Z,8.30
2023-03-22T00:33:41.126Z,8.57
2023-03-22T00:36:11.533Z,8.05
2023-03-22T00:38:46.339Z,7.68
2023-03-22T00:41:22.067Z,8.65
2023-03-22T00:43:50.461Z,8.32
2023-03-22T00:46:19.997Z,7.80
2023-03-22T00:48:48.153Z,8.40
2023-03-22T00:51:15.817Z,7.85
2023-03-22T00:53:43.872Z,8.82
2023-03-22T00:56:16.119Z,9.93
2023-03-22T00:58:44.446Z,9.75
2023-03-22T01:01:15.445Z,9.70
2023-03-22T01:03:43.949Z,10.07
2023-03-22T01:06:14.314Z,11.12
2023-03-22T01:08:41.633Z,12.13
2023-03-22T01:11:09.340Z,11.40
2023-03-22T01:13:44.436Z,10.63
2023-03-22T01:16:11.803Z,11.57
2023-03-22T01:18:39.810Z,11.60
2023-03-22T01:21:07.648Z,11.43
2023-03-22T01:23:35.717Z,10.85
2023-03-22T01:26:04.210Z,12.27
2023-03-22T01:28:31.692Z,12.18
2023-03-22T01:31:02.683Z,11.12
2023-03-22T01:33:30.861Z,11.98
2023-03-22T01:35:58.424Z,10.40
2023-03-22T01:38:26.260Z,12.40
2023-03-22T01:40:53.872Z,11.02
2023-03-22T01:43:21.613Z,10.45
2023-03-22T01:45:50.940Z,12.10
2023-03-22T01:48:37.426Z,11.65
2023-03-22T01:51:12.493Z,11.52
2023-03-22T01:53:44.469Z,11.38
2023-03-22T01:56:12.833Z,10.27
2023-03-22T01:58:41.764Z,11.25
2023-03-22T02:01:10.585Z,11.30
2023-03-22T02:04:03.624Z,11.68
2023-03-22T02:06:32.503Z,13.13
2023-03-22T02:09:01.196Z,14.90
2023-03-22T02:11:34.988Z,13.73
2023-03-22T02:14:15.153Z,12.48
2023-03-22T02:17:00.959Z,13.10
2023-03-22T02:20:10.959Z,13.32
2023-03-22T02:22:58.273Z,14.05
2023-03-22T02:26:04.578Z,12.95
2023-03-22T02:28:51.500Z,11.60
2023-03-22T02:31:41.841Z,12.77
2023-03-22T02:34:23.752Z,12.50
2023-03-22T02:37:45.555Z,10.25
2023-03-22T02:40:25.461Z,12.13
2023-03-22T02:42:56.199Z,11.12
2023-03-22T02:45:41.587Z,11.25
2023-03-22T02:48:12.853Z,11.18
2023-03-22T02:53:45.341Z,9.65
2023-03-22T02:56:23.607Z,9.80
2023-03-22T02:58:53.620Z,10.43
2023-03-22T03:01:36.152Z,10.02
2023-03-22T03:04:08.162Z,9.57
2023-03-22T03:06:39.958Z,10.18
2023-03-22T03:09:08.280Z,10.15
2023-03-22T03:11:36.693Z,10.68
2023-03-22T03:14:04.769Z,9.52
2023-03-22T03:16:36.745Z,10.23
2023-03-22T03:19:20.530Z,10.73
2023-03-22T03:22:12.136Z,10.10
2023-03-22T03:24:50.892Z,10.70
2023-03-22T03:27:23.305Z,11.48
2023-03-22T03:30:11.702Z,10.52
2023-03-22T03:32:49.850Z,10.75
2023-03-22T03:35:22.776Z,9.63
2023-03-22T03:37:54.198Z,10.10
2023-03-22T03:40:24.875Z,9.43
2023-03-22T03:42:54.393Z,11.32
2023-03-22T03:45:22.280Z,10.88
2023-03-22T03:47:57.085Z,10.98
2023-03-22T03:50:28.471Z,12.23
2023-03-22T03:52:56.245Z,10.27
2023-03-22T03:55:24.904Z,10.75
2023-03-22T03:57:52.519Z,11.95
2023-03-22T04:00:20.432Z,10.82
2023-03-22T04:02:49.339Z,10.52
2023-03-22T04:05:18.999Z,10.65
2023-03-22T04:07:46.243Z,10.63
2023-03-22T04:10:14.022Z,9.77
2023-03-22T04:12:41.243Z,10.68
2023-03-22T04:15:12.520Z,9.68
2023-03-22T04:17:40.810Z,10.85
2023-03-22T04:20:11.070Z,9.15
2023-03-22T04:22:39.216Z,10.40
2023-03-22T04:25:11.927Z,11.80
2023-03-22T04:27:41.878Z,10.20
2023-03-22T04:30:12.875Z,12.02
2023-03-22T04:32:43.258Z,11.05
2023-03-22T04:35:11.291Z,10.43
2023-03-22T04:37:38.538Z,10.48
2023-03-22T04:40:10.357Z,11.18
2023-03-22T04:42:37.901Z,11.30
2023-03-22T04:45:06.512Z,10.88
2023-03-22T04:47:34.876Z,11.25
2023-03-22T04:50:06.078Z,10.95
2023-03-22T04:52:37.841Z,10.77
2023-03-22T04:55:07.131Z,11.00
2023-03-22T04:57:35.820Z,11.15
2023-03-22T05:00:06.944Z,11.00
2023-03-22T05:02:35.202Z,10.90
2023-03-22T05:05:02.595Z,11.80
2023-03-22T05:07:30.065Z,12.37
2023-03-22T05:09:57.839Z,11.25
2023-03-22T05:12:25.816Z,12.25
2023-03-22T05:14:53.492Z,11.88
2023-03-22T05:17:24.712Z,13.35
2023-03-22T05:19:52.804Z,11.95
2023-03-22T05:22:23.563Z,13.88
2023-03-22T05:24:54.093Z,12.50
2023-03-22T05:27:31.688Z,13.05
2023-03-22T05:30:02.111Z,13.45
2023-03-22T05:32:30.670Z,14.63
2023-03-22T05:34:58.077Z,16.70
2023-03-22T05:37:26.571Z,23.50
2023-03-22T05:39:54.011Z,17.48
2023-03-22T05:42:23.806Z,19.30
2023-03-22T05:44:51.993Z,18.52
2023-03-22T05:47:20.497Z,17.00
2023-03-22T05:49:48.399Z,15.43
2023-03-22T05:52:15.990Z,17.10
2023-03-22T05:54:44.704Z,18.30
2023-03-22T05:57:11.910Z,14.50
2023-03-22T05:59:39.323Z,13.85
2023-03-22T06:02:07.872Z,15.23
2023-03-22T06:04:35.561Z,13.98
2023-03-22T06:07:03.229Z,11.77
2023-03-22T06:09:31.549Z,12.55
2023-03-22T06:11:59.682Z,12.32
2023-03-22T06:14:26.884Z,13.20
2023-03-22T06:16:56.495Z,11.55
2023-03-22T06:19:25.773Z,11.35
2023-03-22T06:21:56.613Z,11.75
2023-03-22T06:24:25.727Z,12.30
2023-03-22T06:26:52.947Z,12.55
2023-03-22T06:29:20.436Z,12.52
2023-03-22T06:31:50.220Z,12.60
2023-03-22T06:34:20.311Z,11.63
2023-03-22T06:36:48.527Z,12.77
2023-03-22T06:39:16.086Z,13.65
2023-03-22T06:41:43.742Z,12.48
2023-03-22T06:44:11.980Z,12.70
2023-03-22T06:46:40.497Z,12.02
2023-03-22T06:49:09.486Z,12.13
2023-03-22T06:51:37.046Z,13.07
2023-03-22T06:54:04.578Z,10.98
2023-03-22T06:56:31.928Z,11.20
2023-03-22T06:59:01.127Z,10.75
2023-03-22T07:01:28.446Z,10.52
2023-03-22T07:03:56.288Z,10.90
2023-03-22T07:06:25.392Z,9.95
2023-03-22T07:08:52.592Z,9.30
2023-03-22T07:11:20.635Z,8.90
2023-03-22T07:13:49.222Z,9.20
2023-03-22T07:16:20.099Z,9.40
2023-03-22T07:18:48.371Z,9.32
2023-03-22T07:21:16.605Z,8.30
2023-03-22T07:23:44.611Z,8.25
2023-03-22T07:26:13.541Z,9.20
2023-03-22T07:28:44.615Z,8.77
2023-03-22T07:31:13.465Z,8.77
2023-03-22T07:33:41.818Z,8.75
2023-03-22T07:36:09.848Z,9.90
2023-03-22T07:38:37.655Z,10.73
2023-03-22T07:41:06.556Z,11.55
2023-03-22T07:43:44.238Z,12.85
2023-03-22T07:46:21.559Z,13.88
2023-03-22T07:48:49.743Z,12.85
2023-03-22T07:51:19.355Z,13.25
2023-03-22T07:53:47.517Z,12.07
2023-03-22T07:56:15.134Z,11.45
2023-03-22T07:58:42.568Z,11.38
2023-03-22T08:01:13.087Z,11.10
2023-03-22T08:03:42.943Z,11.60
2023-03-22T08:06:12.583Z,10.75
2023-03-22T08:08:39.928Z,11.63
2023-03-22T08:11:07.775Z,10.93
2023-03-22T08:13:35.813Z,11.18
2023-03-22T08:16:03.530Z,11.40
2023-03-22T08:18:33.953Z,10.80
2023-03-22T08:21:01.264Z,10.75
2023-03-22T08:23:40.553Z,11.30
2023-03-22T08:26:14.349Z,10.93
2023-03-22T08:28:44.058Z,10.10
2023-03-22T08:31:15.338Z,10.60
2023-03-22T08:33:44.335Z,10.20
2023-03-22T08:36:15.000Z,11.48
2023-03-22T08:38:43.008Z,10.35
2023-03-22T08:41:10.805Z,9.73
2023-03-22T08:43:38.670Z,9.45
2023-03-22T08:46:06.577Z,10.18
2023-03-22T08:48:35.867Z,9.93
2023-03-22T08:51:06.097Z,10.33
2023-03-22T08:53:35.640Z,10.60
2023-03-22T08:56:06.419Z,10.82
2023-03-22T08:58:36.355Z,9.95
2023-03-22T09:01:06.581Z,9.95
2023-03-22T09:03:34.589Z,15.68
2023-03-22T09:06:02.100Z,11.88
2023-03-22T09:08:30.680Z,10.27
2023-03-22T09:10:59.106Z,9.55
2023-03-22T09:13:28.051Z,9.75
2023-03-22T09:15:56.802Z,10.57
2023-03-22T09:18:25.547Z,9.80
2023-03-22T09:20:54.897Z,10.80
2023-03-22T09:23:24.270Z,10.18
2023-03-22T09:25:51.506Z,10.50
2023-03-22T09:28:19.443Z,10.40
2023-03-22T09:30:47.297Z,10.15
2023-03-22T09:33:18.614Z,10.60
2023-03-22T09:35:48.172Z,10.63
2023-03-22T09:38:16.266Z,10.05
2023-03-22T09:40:52.398Z,9.95
2023-03-22T09:43:20.939Z,10.30
2023-03-22T09:45:51.306Z,10.30
2023-03-22T09:48:21.795Z,9.60
2023-03-22T09:50:52.988Z,9.95
2023-03-22T09:53:21.707Z,9.60
2023-03-22T09:56:14.472Z,10.13
2023-03-22T09:58:52.760Z,9.73
2023-03-22T10:01:38.967Z,10.20
2023-03-22T10:04:32.644Z,11.00
2023-03-22T10:07:04.991Z,10.02
2023-03-22T10:09:42.189Z,10.82
2023-03-22T10:12:20.776Z,10.68
2023-03-22T10:15:22.354Z,9.82
2023-03-22T10:17:55.553Z,11.35
2023-03-22T10:20:31.975Z,9.77
2023-03-22T10:23:01.228Z,10.35
2023-03-22T10:25:36.689Z,10.20
2023-03-22T10:28:22.816Z,11.25
2023-03-22T10:30:56.063Z,10.65
2023-03-22T10:33:29.020Z,10.93
2023-03-22T10:35:57.349Z,11.68
2023-03-22T10:38:26.910Z,12.93
2023-03-22T10:40:55.813Z,13.05
2023-03-22T10:43:33.934Z,13.68
2023-03-22T10:46:04.175Z,11.25
2023-03-22T10:51:26.756Z,11.05
2023-03-22T10:53:55.331Z,11.70
2023-03-22T10:56:22.634Z,11.93
2023-03-22T10:58:50.608Z,11.63
2023-03-22T11:01:31.954Z,12.70
2023-03-22T11:04:19.550Z,12.15
2023-03-22T11:06:54.727Z,12.35
2023-03-22T11:09:24.516Z,11.68
2023-03-22T11:11:54.376Z,10.45
2023-03-22T11:14:34.065Z,10.70
2023-03-22T11:17:26.109Z,10.93
2023-03-22T11:19:56.618Z,11.12
2023-03-22T11:22:35.943Z,13.30
2023-03-22T11:25:07.828Z,15.07
2023-03-22T11:27:37.267Z,16.85
2023-03-22T11:30:27.659Z,15.68
2023-03-22T11:33:08.330Z,17.92
2023-03-22T11:38:05.798Z,19.95
2023-03-22T11:40:53.468Z,19.00
2023-03-22T11:43:24.049Z,18.55
2023-03-22T11:45:55.325Z,16.80
2023-03-22T11:48:27.117Z,17.05
2023-03-22T11:50:59.216Z,18.08
2023-03-22T11:53:34.044Z,14.45
2023-03-22T11:56:02.543Z,12.40
2023-03-22T11:58:46.214Z,12.52
2023-03-22T12:01:18.798Z,12.68
2023-03-22T12:03:49.989Z,13.07
2023-03-22T12:06:27.593Z,28.15
2023-03-22T12:09:01.436Z,32.47
2023-03-22T12:11:40.863Z,12.35
2023-03-22T12:14:17.412Z,11.65
2023-03-22T12:16:50.958Z,10.75
2023-03-22T12:19:43.113Z,11.00
2023-03-22T12:22:17.151Z,10.02
2023-03-22T12:24:47.131Z,17.60
2023-03-22T12:27:17.133Z,11.60
2023-03-22T12:32:29.575Z,10.75
2023-03-22T12:35:05.405Z,12.30
2023-03-22T12:37:46.872Z,11.55
2023-03-22T12:40:31.919Z,9.80
2023-03-22T12:43:10.655Z,12.05
2023-03-22T12:48:45.155Z,11.12
2023-03-22T12:51:15.375Z,9.88
2023-03-22T12:53:50.305Z,12.07
2023-03-22T12:59:03.715Z,9.73
2023-03-22T13:01:45.733Z,10.70
2023-03-22T13:04:35.072Z,11.57
2023-03-22T13:07:16.388Z,16.05
2023-03-22T13:09:50.200Z,12.98
2023-03-22T13:12:17.893Z,13.98
2023-03-22T13:14:51.897Z,12.88
2023-03-22T13:17:24.525Z,13.18
2023-03-22T13:20:08.209Z,12.00
2023-03-22T13:22:38.860Z,15.90
2023-03-22T13:30:21.938Z,10.48
2023-03-22T13:33:03.664Z,10.25
2023-03-22T13:35:43.439Z,9.43
2023-03-22T13:38:21.125Z,10.93
2023-03-22T13:41:07.756Z,11.25
2023-03-22T13:43:50.471Z,9.10
2023-03-22T13:46:17.860Z,7.45
2023-03-22T13:48:51.920Z,6.40
2023-03-22T13:51:22.021Z,7.35
2023-03-22T13:54:02.040Z,23.00
2023-03-22T13:56:44.633Z,7.93
2023-03-22T13:59:29.956Z,11.27
2023-03-22T14:02:00.698Z,10.75
2023-03-22T14:04:50.651Z,9.95
2023-03-22T14:07:49.442Z,9.95
2023-03-22T14:10:27.399Z,8.20
2023-03-22T14:13:05.764Z,10.68
2023-03-22T14:15:36.422Z,8.23
2023-03-22T14:18:21.443Z,21.50
2023-03-22T14:21:10.008Z,8.88
